sensor_id;sensor_type;location;lat;lon;timestamp;temperature;humidity
29237;DHT22;16266;50.866;4.398;2022-10-16T00:01:18;14.40;99.90
29237;DHT22;16266;50.866;4.398;2022-10-16T00:03:44;14.30;99.90
29237;DHT22;16266;50.866;4.398;2022-10-16T00:06:10;14.30;99.90
29237;DHT22;16266;50.866;4.398;2022-10-16T00:08:36;14.30;99.90
29237;DHT22;16266;50.866;4.398;2022-10-16T00:11:03;14.30;99.90
29237;DHT22;16266;50.866;4.398;2022-10-16T00:13:29;14.10;99.90
29237;DHT22;16266;50.866;4.398;2022-10-16T00:15:56;14.20;99.90
29237;DHT22;16266;50.866;4.398;2022-10-16T00:18:22;14.30;99.90
29237;DHT22;16266;50.866;4.398;2022-10-16T00:20:48;14.30;99.90
29237;DHT22;16266;50.866;4.398;2022-10-16T00:23:13;14.30;99.90
29237;DHT22;16266;50.866;4.398;2022-10-16T00:25:39;14.20;99.90
29237;DHT22;16266;50.866;4.398;2022-10-16T00:28:04;14.30;99.90
29237;DHT22;16266;50.866;4.398;2022-10-16T00:30:30;14.20;99.90
29237;DHT22;16266;50.866;4.398;2022-10-16T00:32:56;14.20;99.90
29237;DHT22;16266;50.866;4.398;2022-10-16T00:35:21;14.20;99.90
29237;DHT22;16266;50.866;4.398;2022-10-16T00:37:47;14.20;99.90
29237;DHT22;16266;50.866;4.398;2022-10-16T00:40:12;14.10;99.90
29237;DHT22;16266;50.866;4.398;2022-10-16T00:42:38;14.10;99.90
29237;DHT22;16266;50.866;4.398;2022-10-16T00:45:04;14.00;99.90
29237;DHT22;16266;50.866;4.398;2022-10-16T00:47:30;14.10;99.90
29237;DHT22;16266;50.866;4.398;2022-10-16T00:50:08;14.10;99.90
29237;DHT22;16266;50.866;4.398;2022-10-16T00:52:33;14.00;99.90
29237;DHT22;16266;50.866;4.398;2022-10-16T00:55:00;14.00;99.90
29237;DHT22;16266;50.866;4.398;2022-10-16T00:57:26;13.90;99.90
29237;DHT22;16266;50.866;4.398;2022-10-16T00:59:52;13.90;99.90
29237;DHT22;16266;50.866;4.398;2022-10-16T01:02:18;14.00;99.90
29237;DHT22;16266;50.866;4.398;2022-10-16T01:04:47;14.00;99.90
29237;DHT22;16266;50.866;4.398;2022-10-16T01:09:52;13.90;99.90
29237;DHT22;16266;50.866;4.398;2022-10-16T01:12:27;13.90;99.90
29237;DHT22;16266;50.866;4.398;2022-10-16T01:14:58;13.90;99.90
29237;DHT22;16266;50.866;4.398;2022-10-16T01:17:41;13.90;99.90
29237;DHT22;16266;50.866;4.398;2022-10-16T01:22:48;13.90;99.90
29237;DHT22;16266;50.866;4.398;2022-10-16T01:28:04;13.90;99.90
29237;DHT22;16266;50.866;4.398;2022-10-16T01:30:32;13.90;99.90
29237;DHT22;16266;50.866;4.398;2022-10-16T01:35:29;13.80;99.90
29237;DHT22;16266;50.866;4.398;2022-10-16T01:38:01;13.80;99.90
29237;DHT22;16266;50.866;4.398;2022-10-16T01:40:28;13.80;99.90
29237;DHT22;16266;50.866;4.398;2022-10-16T01:43:03;13.80;99.90
29237;DHT22;16266;50.866;4.398;2022-10-16T01:45:30;13.80;99.90
29237;DHT22;16266;50.866;4.398;2022-10-16T01:47:56;13.80;99.90
29237;DHT22;16266;50.866;4.398;2022-10-16T01:50:23;13.80;99.90
29237;DHT22;16266;50.866;4.398;2022-10-16T01:52:50;13.70;99.90
29237;DHT22;16266;50.866;4.398;2022-10-16T01:55:19;13.70;99.90
29237;DHT22;16266;50.866;4.398;2022-10-16T01:57:46;13.70;99.90
29237;DHT22;16266;50.866;4.398;2022-10-16T02:00:13;13.80;99.90
29237;DHT22;16266;50.866;4.398;2022-10-16T02:02:40;13.80;99.90
29237;DHT22;16266;50.866;4.398;2022-10-16T02:07:38;13.80;99.90
29237;DHT22;16266;50.866;4.398;2022-10-16T02:10:06;13.80;99.90
29237;DHT22;16266;50.866;4.398;2022-10-16T02:12:33;13.90;99.90
29237;DHT22;16266;50.866;4.398;2022-10-16T02:14:59;13.90;99.90
29237;DHT22;16266;50.866;4.398;2022-10-16T02:17:24;13.90;99.90
29237;DHT22;16266;50.866;4.398;2022-10-16T02:19:51;13.80;99.90
29237;DHT22;16266;50.866;4.398;2022-10-16T02:22:19;13.90;99.90
29237;DHT22;16266;50.866;4.398;2022-10-16T02:27:16;13.80;99.90
29237;DHT22;16266;50.866;4.398;2022-10-16T02:29:46;13.90;99.90
29237;DHT22;16266;50.866;4.398;2022-10-16T02:32:15;13.90;99.90
29237;DHT22;16266;50.866;4.398;2022-10-16T02:34:42;13.90;99.90
29237;DHT22;16266;50.866;4.398;2022-10-16T02:37:08;13.80;99.90
29237;DHT22;16266;50.866;4.398;2022-10-16T02:39:35;13.80;99.90
29237;DHT22;16266;50.866;4.398;2022-10-16T02:42:02;13.80;99.90
29237;DHT22;16266;50.866;4.398;2022-10-16T02:44:27;13.80;99.90
29237;DHT22;16266;50.866;4.398;2022-10-16T02:46:53;13.80;99.90
29237;DHT22;16266;50.866;4.398;2022-10-16T02:49:18;13.80;99.90
29237;DHT22;16266;50.866;4.398;2022-10-16T02:51:44;13.80;99.90
29237;DHT22;16266;50.866;4.398;2022-10-16T02:54:09;13.80;99.90
29237;DHT22;16266;50.866;4.398;2022-10-16T02:56:35;13.70;99.90
29237;DHT22;16266;50.866;4.398;2022-10-16T02:59:01;13.70;99.90
29237;DHT22;16266;50.866;4.398;2022-10-16T03:01:27;13.70;99.90
29237;DHT22;16266;50.866;4.398;2022-10-16T03:03:52;13.80;99.90
29237;DHT22;16266;50.866;4.398;2022-10-16T03:06:18;13.80;99.90
29237;DHT22;16266;50.866;4.398;2022-10-16T03:08:43;13.80;99.90
29237;DHT22;16266;50.866;4.398;2022-10-16T03:11:09;13.80;99.90
29237;DHT22;16266;50.866;4.398;2022-10-16T03:13:34;13.80;99.90
29237;DHT22;16266;50.866;4.398;2022-10-16T03:16:00;13.90;99.90
29237;DHT22;16266;50.866;4.398;2022-10-16T03:18:25;13.80;99.90
29237;DHT22;16266;50.866;4.398;2022-10-16T03:20:51;13.90;99.90
29237;DHT22;16266;50.866;4.398;2022-10-16T03:23:16;13.90;99.90
29237;DHT22;16266;50.866;4.398;2022-10-16T03:25:42;13.90;99.90
29237;DHT22;16266;50.866;4.398;2022-10-16T03:28:07;13.90;99.90
29237;DHT22;16266;50.866;4.398;2022-10-16T03:30:33;13.90;99.90
29237;DHT22;16266;50.866;4.398;2022-10-16T03:32:59;13.90;99.90
29237;DHT22;16266;50.866;4.398;2022-10-16T03:35:25;13.90;99.90
29237;DHT22;16266;50.866;4.398;2022-10-16T03:37:50;13.90;99.90
29237;DHT22;16266;50.866;4.398;2022-10-16T03:40:16;13.90;99.90
29237;DHT22;16266;50.866;4.398;2022-10-16T03:42:42;13.90;99.90
29237;DHT22;16266;50.866;4.398;2022-10-16T03:45:07;13.80;99.90
29237;DHT22;16266;50.866;4.398;2022-10-16T03:47:33;13.90;99.90
29237;DHT22;16266;50.866;4.398;2022-10-16T03:49:59;13.90;99.90
29237;DHT22;16266;50.866;4.398;2022-10-16T03:52:24;13.90;99.90
29237;DHT22;16266;50.866;4.398;2022-10-16T03:54:50;13.90;99.90
29237;DHT22;16266;50.866;4.398;2022-10-16T03:57:16;13.90;99.90
29237;DHT22;16266;50.866;4.398;2022-10-16T03:59:41;13.90;99.90
29237;DHT22;16266;50.866;4.398;2022-10-16T04:02:07;13.80;99.90
29237;DHT22;16266;50.866;4.398;2022-10-16T04:04:32;13.80;99.90
29237;DHT22;16266;50.866;4.398;2022-10-16T04:06:58;13.90;99.90
29237;DHT22;16266;50.866;4.398;2022-10-16T04:09:23;13.90;99.90
29237;DHT22;16266;50.866;4.398;2022-10-16T04:11:49;13.90;99.90
29237;DHT22;16266;50.866;4.398;2022-10-16T04:14:14;14.00;99.90
29237;DHT22;16266;50.866;4.398;2022-10-16T04:16:40;13.90;99.90
29237;DHT22;16266;50.866;4.398;2022-10-16T04:19:05;13.80;99.90
29237;DHT22;16266;50.866;4.398;2022-10-16T04:21:31;13.80;99.90
29237;DHT22;16266;50.866;4.398;2022-10-16T04:23:56;13.80;99.90
29237;DHT22;16266;50.866;4.398;2022-10-16T04:26:22;13.80;99.90
29237;DHT22;16266;50.866;4.398;2022-10-16T04:28:47;13.70;99.90
29237;DHT22;16266;50.866;4.398;2022-10-16T04:31:13;13.80;99.90
29237;DHT22;16266;50.866;4.398;2022-10-16T04:33:38;13.70;99.90
29237;DHT22;16266;50.866;4.398;2022-10-16T04:36:04;13.70;99.90
29237;DHT22;16266;50.866;4.398;2022-10-16T04:38:29;13.70;99.90
29237;DHT22;16266;50.866;4.398;2022-10-16T04:40:55;13.70;99.90
29237;DHT22;16266;50.866;4.398;2022-10-16T04:43:21;13.60;99.90
29237;DHT22;16266;50.866;4.398;2022-10-16T04:45:46;13.60;99.90
29237;DHT22;16266;50.866;4.398;2022-10-16T04:48:12;13.60;99.90
29237;DHT22;16266;50.866;4.398;2022-10-16T04:50:38;13.60;99.90
29237;DHT22;16266;50.866;4.398;2022-10-16T04:53:05;13.60;99.90
29237;DHT22;16266;50.866;4.398;2022-10-16T04:55:33;13.60;99.90
29237;DHT22;16266;50.866;4.398;2022-10-16T04:57:58;13.60;99.90
29237;DHT22;16266;50.866;4.398;2022-10-16T05:00:24;13.60;99.90
29237;DHT22;16266;50.866;4.398;2022-10-16T05:02:50;13.60;99.90
29237;DHT22;16266;50.866;4.398;2022-10-16T05:05:15;13.50;99.90
29237;DHT22;16266;50.866;4.398;2022-10-16T05:07:41;13.60;99.90
29237;DHT22;16266;50.866;4.398;2022-10-16T05:10:06;13.50;99.90
29237;DHT22;16266;50.866;4.398;2022-10-16T05:12:32;13.40;99.90
29237;DHT22;16266;50.866;4.398;2022-10-16T05:14:58;13.50;99.90
29237;DHT22;16266;50.866;4.398;2022-10-16T05:17:26;13.50;99.90
29237;DHT22;16266;50.866;4.398;2022-10-16T05:19:52;13.50;99.90
29237;DHT22;16266;50.866;4.398;2022-10-16T05:22:18;13.50;99.90
29237;DHT22;16266;50.866;4.398;2022-10-16T05:24:43;13.40;99.90
29237;DHT22;16266;50.866;4.398;2022-10-16T05:27:10;13.50;99.90
29237;DHT22;16266;50.866;4.398;2022-10-16T05:29:36;13.50;99.90
29237;DHT22;16266;50.866;4.398;2022-10-16T05:32:02;13.40;99.90
29237;DHT22;16266;50.866;4.398;2022-10-16T05:34:27;13.40;99.90
29237;DHT22;16266;50.866;4.398;2022-10-16T05:36:53;13.40;99.90
29237;DHT22;16266;50.866;4.398;2022-10-16T05:39:19;13.40;99.90
29237;DHT22;16266;50.866;4.398;2022-10-16T05:41:44;13.40;99.90
29237;DHT22;16266;50.866;4.398;2022-10-16T05:44:10;13.40;99.90
29237;DHT22;16266;50.866;4.398;2022-10-16T05:46:35;13.30;99.90
29237;DHT22;16266;50.866;4.398;2022-10-16T05:49:01;13.30;99.90
29237;DHT22;16266;50.866;4.398;2022-10-16T05:51:27;13.30;99.90
29237;DHT22;16266;50.866;4.398;2022-10-16T05:53:52;13.30;99.90
29237;DHT22;16266;50.866;4.398;2022-10-16T05:56:18;13.40;99.90
29237;DHT22;16266;50.866;4.398;2022-10-16T05:58:43;13.40;99.90
29237;DHT22;16266;50.866;4.398;2022-10-16T06:01:10;13.40;99.90
29237;DHT22;16266;50.866;4.398;2022-10-16T06:03:36;13.30;99.90
29237;DHT22;16266;50.866;4.398;2022-10-16T06:06:15;13.40;99.90
29237;DHT22;16266;50.866;4.398;2022-10-16T06:08:42;13.40;99.90
29237;DHT22;16266;50.866;4.398;2022-10-16T06:11:08;13.40;99.90
29237;DHT22;16266;50.866;4.398;2022-10-16T06:13:34;13.40;99.90
29237;DHT22;16266;50.866;4.398;2022-10-16T06:16:00;13.40;99.90
29237;DHT22;16266;50.866;4.398;2022-10-16T06:18:26;13.30;99.90
29237;DHT22;16266;50.866;4.398;2022-10-16T06:20:52;13.40;99.90
29237;DHT22;16266;50.866;4.398;2022-10-16T06:23:18;13.40;99.90
29237;DHT22;16266;50.866;4.398;2022-10-16T06:25:43;13.40;99.90
29237;DHT22;16266;50.866;4.398;2022-10-16T06:28:09;13.30;99.90
29237;DHT22;16266;50.866;4.398;2022-10-16T06:30:34;13.30;99.90
29237;DHT22;16266;50.866;4.398;2022-10-16T06:33:02;13.40;99.90
29237;DHT22;16266;50.866;4.398;2022-10-16T06:35:27;13.40;99.90
29237;DHT22;16266;50.866;4.398;2022-10-16T06:37:54;13.50;99.90
29237;DHT22;16266;50.866;4.398;2022-10-16T06:40:20;13.50;99.90
29237;DHT22;16266;50.866;4.398;2022-10-16T06:42:45;13.60;99.90
29237;DHT22;16266;50.866;4.398;2022-10-16T06:45:11;13.80;99.90
29237;DHT22;16266;50.866;4.398;2022-10-16T06:47:36;14.20;99.90
29237;DHT22;16266;50.866;4.398;2022-10-16T06:50:02;14.80;99.90
29237;DHT22;16266;50.866;4.398;2022-10-16T06:52:29;15.30;99.90
29237;DHT22;16266;50.866;4.398;2022-10-16T06:54:54;16.10;99.90
29237;DHT22;16266;50.866;4.398;2022-10-16T06:57:20;16.90;99.90
29237;DHT22;16266;50.866;4.398;2022-10-16T06:59:45;17.30;99.90
29237;DHT22;16266;50.866;4.398;2022-10-16T07:02:11;17.40;99.90
29237;DHT22;16266;50.866;4.398;2022-10-16T07:04:37;17.30;99.90
29237;DHT22;16266;50.866;4.398;2022-10-16T07:07:04;17.20;99.90
29237;DHT22;16266;50.866;4.398;2022-10-16T07:09:31;17.40;99.90
29237;DHT22;16266;50.866;4.398;2022-10-16T07:11:57;17.20;99.90
29237;DHT22;16266;50.866;4.398;2022-10-16T07:14:22;17.30;99.90
29237;DHT22;16266;50.866;4.398;2022-10-16T07:16:48;17.90;99.90
29237;DHT22;16266;50.866;4.398;2022-10-16T07:19:14;18.50;99.90
29237;DHT22;16266;50.866;4.398;2022-10-16T07:21:40;19.40;99.90
29237;DHT22;16266;50.866;4.398;2022-10-16T07:24:07;19.90;99.90
29237;DHT22;16266;50.866;4.398;2022-10-16T07:26:36;20.50;99.90
29237;DHT22;16266;50.866;4.398;2022-10-16T07:29:02;21.00;99.90
29237;DHT22;16266;50.866;4.398;2022-10-16T07:31:28;21.10;99.90
29237;DHT22;16266;50.866;4.398;2022-10-16T07:33:54;21.10;99.90
29237;DHT22;16266;50.866;4.398;2022-10-16T07:36:19;21.00;99.90
29237;DHT22;16266;50.866;4.398;2022-10-16T07:38:46;20.90;99.90
29237;DHT22;16266;50.866;4.398;2022-10-16T07:41:13;21.00;99.90
29237;DHT22;16266;50.866;4.398;2022-10-16T07:43:39;21.30;99.90
29237;DHT22;16266;50.866;4.398;2022-10-16T07:46:04;21.80;99.90
29237;DHT22;16266;50.866;4.398;2022-10-16T07:48:31;22.50;99.90
29237;DHT22;16266;50.866;4.398;2022-10-16T07:50:58;22.80;99.90
29237;DHT22;16266;50.866;4.398;2022-10-16T07:53:24;23.40;99.90
29237;DHT22;16266;50.866;4.398;2022-10-16T07:55:49;23.70;99.90
29237;DHT22;16266;50.866;4.398;2022-10-16T07:58:15;23.70;99.90
29237;DHT22;16266;50.866;4.398;2022-10-16T08:00:40;23.90;99.90
29237;DHT22;16266;50.866;4.398;2022-10-16T08:03:05;24.60;99.90
29237;DHT22;16266;50.866;4.398;2022-10-16T08:05:31;25.20;99.90
29237;DHT22;16266;50.866;4.398;2022-10-16T08:07:57;26.00;99.90
29237;DHT22;16266;50.866;4.398;2022-10-16T08:10:23;25.70;99.90
29237;DHT22;16266;50.866;4.398;2022-10-16T08:12:50;25.40;99.90
29237;DHT22;16266;50.866;4.398;2022-10-16T08:15:15;25.70;99.90
29237;DHT22;16266;50.866;4.398;2022-10-16T08:17:41;26.20;99.90
29237;DHT22;16266;50.866;4.398;2022-10-16T08:20:06;26.00;99.90
29237;DHT22;16266;50.866;4.398;2022-10-16T08:22:32;25.80;99.90
29237;DHT22;16266;50.866;4.398;2022-10-16T08:24:57;25.50;99.90
29237;DHT22;16266;50.866;4.398;2022-10-16T08:27:23;25.20;99.90
29237;DHT22;16266;50.866;4.398;2022-10-16T08:29:49;25.00;99.90
29237;DHT22;16266;50.866;4.398;2022-10-16T08:32:14;25.50;99.90
29237;DHT22;16266;50.866;4.398;2022-10-16T08:34:40;26.10;99.90
29237;DHT22;16266;50.866;4.398;2022-10-16T08:37:05;25.80;99.90
29237;DHT22;16266;50.866;4.398;2022-10-16T08:39:33;26.30;99.90
29237;DHT22;16266;50.866;4.398;2022-10-16T08:44:27;27.10;99.90
29237;DHT22;16266;50.866;4.398;2022-10-16T08:47:00;27.70;99.90
29237;DHT22;16266;50.866;4.398;2022-10-16T08:49:26;27.10;99.90
29237;DHT22;16266;50.866;4.398;2022-10-16T08:51:52;27.00;99.90
29237;DHT22;16266;50.866;4.398;2022-10-16T08:54:21;27.20;99.90
29237;DHT22;16266;50.866;4.398;2022-10-16T08:56:48;27.30;99.90
29237;DHT22;16266;50.866;4.398;2022-10-16T08:59:13;27.30;99.90
29237;DHT22;16266;50.866;4.398;2022-10-16T09:01:41;27.50;99.80
29237;DHT22;16266;50.866;4.398;2022-10-16T09:07:02;27.90;99.30
29237;DHT22;16266;50.866;4.398;2022-10-16T09:12:19;27.00;99.90
29237;DHT22;16266;50.866;4.398;2022-10-16T09:15:01;28.20;98.70
29237;DHT22;16266;50.866;4.398;2022-10-16T09:22:38;29.30;95.70
29237;DHT22;16266;50.866;4.398;2022-10-16T09:25:11;29.80;94.00
29237;DHT22;16266;50.866;4.398;2022-10-16T09:27:37;29.60;93.90
29237;DHT22;16266;50.866;4.398;2022-10-16T09:30:13;29.90;93.00
29237;DHT22;16266;50.866;4.398;2022-10-16T09:32:40;30.00;92.40
29237;DHT22;16266;50.866;4.398;2022-10-16T09:35:09;30.40;91.60
29237;DHT22;16266;50.866;4.398;2022-10-16T09:37:36;31.00;90.90
29237;DHT22;16266;50.866;4.398;2022-10-16T09:40:02;31.60;88.40
29237;DHT22;16266;50.866;4.398;2022-10-16T09:42:30;31.80;85.20
29237;DHT22;16266;50.866;4.398;2022-10-16T09:44:56;32.10;82.90
29237;DHT22;16266;50.866;4.398;2022-10-16T09:47:28;32.50;79.10
29237;DHT22;16266;50.866;4.398;2022-10-16T09:49:58;31.50;81.50
29237;DHT22;16266;50.866;4.398;2022-10-16T09:52:27;30.40;84.50
29237;DHT22;16266;50.866;4.398;2022-10-16T09:54:54;29.20;87.70
29237;DHT22;16266;50.866;4.398;2022-10-16T09:57:20;29.10;87.40
29237;DHT22;16266;50.866;4.398;2022-10-16T09:59:56;29.20;87.30
29237;DHT22;16266;50.866;4.398;2022-10-16T10:02:34;28.90;88.70
29237;DHT22;16266;50.866;4.398;2022-10-16T10:04:59;28.70;90.30
29237;DHT22;16266;50.866;4.398;2022-10-16T10:09:51;30.20;87.60
29237;DHT22;16266;50.866;4.398;2022-10-16T10:12:18;31.20;84.40
29237;DHT22;16266;50.866;4.398;2022-10-16T10:14:45;32.30;82.60
29237;DHT22;16266;50.866;4.398;2022-10-16T10:19:49;31.60;77.30
29237;DHT22;16266;50.866;4.398;2022-10-16T10:22:20;31.30;78.40
29237;DHT22;16266;50.866;4.398;2022-10-16T10:27:48;32.50;75.10
29237;DHT22;16266;50.866;4.398;2022-10-16T10:35:16;32.00;71.70
29237;DHT22;16266;50.866;4.398;2022-10-16T10:40:39;31.70;71.70
29237;DHT22;16266;50.866;4.398;2022-10-16T10:45:46;31.10;69.20
29237;DHT22;16266;50.866;4.398;2022-10-16T11:01:17;31.80;67.30
29237;DHT22;16266;50.866;4.398;2022-10-16T11:09:00;31.20;69.10
29237;DHT22;16266;50.866;4.398;2022-10-16T11:11:32;32.20;66.80
29237;DHT22;16266;50.866;4.398;2022-10-16T11:16:28;33.20;61.50
29237;DHT22;16266;50.866;4.398;2022-10-16T11:21:20;33.30;60.90
29237;DHT22;16266;50.866;4.398;2022-10-16T11:24:06;34.00;60.20
29237;DHT22;16266;50.866;4.398;2022-10-16T11:26:38;34.30;58.40
29237;DHT22;16266;50.866;4.398;2022-10-16T11:29:05;32.40;57.20
29237;DHT22;16266;50.866;4.398;2022-10-16T11:31:39;30.80;60.20
29237;DHT22;16266;50.866;4.398;2022-10-16T11:36:42;30.60;64.30
29237;DHT22;16266;50.866;4.398;2022-10-16T11:41:37;32.40;60.40
29237;DHT22;16266;50.866;4.398;2022-10-16T11:46:39;34.60;55.90
29237;DHT22;16266;50.866;4.398;2022-10-16T11:49:15;34.30;55.20
29237;DHT22;16266;50.866;4.398;2022-10-16T11:54:45;30.50;58.60
29237;DHT22;16266;50.866;4.398;2022-10-16T11:57:17;28.50;62.30
29237;DHT22;16266;50.866;4.398;2022-10-16T12:00:46;26.60;69.30
29237;DHT22;16266;50.866;4.398;2022-10-16T12:02:46;26.10;74.00
29237;DHT22;16266;50.866;4.398;2022-10-16T12:07:42;26.30;78.60
29237;DHT22;16266;50.866;4.398;2022-10-16T12:10:22;26.40;78.00
29237;DHT22;16266;50.866;4.398;2022-10-16T12:12:48;26.60;77.30
29237;DHT22;16266;50.866;4.398;2022-10-16T12:15:25;26.70;75.20
29237;DHT22;16266;50.866;4.398;2022-10-16T12:17:51;26.80;77.20
29237;DHT22;16266;50.866;4.398;2022-10-16T12:22:56;27.50;75.30
29237;DHT22;16266;50.866;4.398;2022-10-16T12:25:23;27.00;76.10
29237;DHT22;16266;50.866;4.398;2022-10-16T12:28:05;26.30;78.30
29237;DHT22;16266;50.866;4.398;2022-10-16T12:30:32;25.80;80.10
29237;DHT22;16266;50.866;4.398;2022-10-16T12:33:00;25.60;84.00
29237;DHT22;16266;50.866;4.398;2022-10-16T12:35:30;25.10;84.60
29237;DHT22;16266;50.866;4.398;2022-10-16T12:38:07;25.00;88.80
29237;DHT22;16266;50.866;4.398;2022-10-16T12:40:33;24.90;90.10
29237;DHT22;16266;50.866;4.398;2022-10-16T12:43:10;24.80;90.30
29237;DHT22;16266;50.866;4.398;2022-10-16T12:45:35;24.70;89.20
29237;DHT22;16266;50.866;4.398;2022-10-16T12:48:02;24.30;90.40
29237;DHT22;16266;50.866;4.398;2022-10-16T12:50:32;24.10;91.40
29237;DHT22;16266;50.866;4.398;2022-10-16T12:52:58;24.00;92.90
29237;DHT22;16266;50.866;4.398;2022-10-16T12:55:24;24.10;93.00
29237;DHT22;16266;50.866;4.398;2022-10-16T12:58:09;24.10;91.70
29237;DHT22;16266;50.866;4.398;2022-10-16T13:21:53;24.50;95.10
29237;DHT22;16266;50.866;4.398;2022-10-16T13:27:20;24.30;95.00
29237;DHT22;16266;50.866;4.398;2022-10-16T13:29:58;24.00;96.10
29237;DHT22;16266;50.866;4.398;2022-10-16T13:32:25;23.80;96.80
29237;DHT22;16266;50.866;4.398;2022-10-16T13:34:51;23.80;97.30
29237;DHT22;16266;50.866;4.398;2022-10-16T13:37:19;23.80;97.40
29237;DHT22;16266;50.866;4.398;2022-10-16T13:39:45;23.90;98.10
29237;DHT22;16266;50.866;4.398;2022-10-16T13:42:18;24.00;98.10
29237;DHT22;16266;50.866;4.398;2022-10-16T13:44:52;24.10;97.90
29237;DHT22;16266;50.866;4.398;2022-10-16T13:47:18;24.10;98.60
29237;DHT22;16266;50.866;4.398;2022-10-16T13:49:45;23.80;98.20
29237;DHT22;16266;50.866;4.398;2022-10-16T13:52:17;23.50;99.00
29237;DHT22;16266;50.866;4.398;2022-10-16T13:54:43;23.00;99.90
29237;DHT22;16266;50.866;4.398;2022-10-16T13:57:12;22.90;99.90
29237;DHT22;16266;50.866;4.398;2022-10-16T13:59:38;22.70;99.90
29237;DHT22;16266;50.866;4.398;2022-10-16T14:02:15;22.70;99.90
29237;DHT22;16266;50.866;4.398;2022-10-16T14:04:43;22.80;99.90
29237;DHT22;16266;50.866;4.398;2022-10-16T14:07:13;22.70;99.90
29237;DHT22;16266;50.866;4.398;2022-10-16T14:09:39;22.70;99.90
29237;DHT22;16266;50.866;4.398;2022-10-16T14:12:10;22.60;99.90
29237;DHT22;16266;50.866;4.398;2022-10-16T14:14:40;22.50;99.90
29237;DHT22;16266;50.866;4.398;2022-10-16T14:17:13;22.50;99.90
29237;DHT22;16266;50.866;4.398;2022-10-16T14:19:38;22.40;99.90
29237;DHT22;16266;50.866;4.398;2022-10-16T14:22:20;22.50;99.90
29237;DHT22;16266;50.866;4.398;2022-10-16T14:24:47;22.40;99.90
29237;DHT22;16266;50.866;4.398;2022-10-16T14:32:33;22.10;99.90
29237;DHT22;16266;50.866;4.398;2022-10-16T14:34:59;22.10;99.90
29237;DHT22;16266;50.866;4.398;2022-10-16T14:37:28;22.10;99.90
29237;DHT22;16266;50.866;4.398;2022-10-16T14:39:54;22.10;99.90
29237;DHT22;16266;50.866;4.398;2022-10-16T14:42:21;22.20;99.90
29237;DHT22;16266;50.866;4.398;2022-10-16T14:44:50;22.20;99.90
29237;DHT22;16266;50.866;4.398;2022-10-16T14:47:18;22.20;99.90
29237;DHT22;16266;50.866;4.398;2022-10-16T14:49:47;22.30;99.90
29237;DHT22;16266;50.866;4.398;2022-10-16T14:52:13;22.10;99.90
29237;DHT22;16266;50.866;4.398;2022-10-16T14:54:39;22.10;99.90
29237;DHT22;16266;50.866;4.398;2022-10-16T14:57:05;21.80;99.90
29237;DHT22;16266;50.866;4.398;2022-10-16T14:59:38;21.60;99.90
29237;DHT22;16266;50.866;4.398;2022-10-16T15:02:18;21.60;99.90
29237;DHT22;16266;50.866;4.398;2022-10-16T15:04:45;21.60;99.90
29237;DHT22;16266;50.866;4.398;2022-10-16T15:07:11;21.60;99.90
29237;DHT22;16266;50.866;4.398;2022-10-16T15:09:36;21.60;99.90
29237;DHT22;16266;50.866;4.398;2022-10-16T15:12:02;21.70;99.90
29237;DHT22;16266;50.866;4.398;2022-10-16T15:14:27;21.70;99.90
29237;DHT22;16266;50.866;4.398;2022-10-16T15:16:53;21.70;99.90
29237;DHT22;16266;50.866;4.398;2022-10-16T15:19:18;21.50;99.90
29237;DHT22;16266;50.866;4.398;2022-10-16T15:21:44;21.40;99.90
29237;DHT22;16266;50.866;4.398;2022-10-16T15:24:11;21.30;99.90
29237;DHT22;16266;50.866;4.398;2022-10-16T15:26:37;21.30;99.90
29237;DHT22;16266;50.866;4.398;2022-10-16T15:29:02;21.30;99.90
29237;DHT22;16266;50.866;4.398;2022-10-16T15:31:28;21.10;99.90
29237;DHT22;16266;50.866;4.398;2022-10-16T15:33:53;21.00;99.90
29237;DHT22;16266;50.866;4.398;2022-10-16T15:36:26;20.70;99.90
29237;DHT22;16266;50.866;4.398;2022-10-16T15:38:52;20.70;99.90
29237;DHT22;16266;50.866;4.398;2022-10-16T15:41:20;20.90;99.90
29237;DHT22;16266;50.866;4.398;2022-10-16T15:43:47;20.80;99.90
29237;DHT22;16266;50.866;4.398;2022-10-16T15:46:13;20.60;99.90
29237;DHT22;16266;50.866;4.398;2022-10-16T15:48:42;20.60;99.90
29237;DHT22;16266;50.866;4.398;2022-10-16T15:51:08;20.50;99.90
29237;DHT22;16266;50.866;4.398;2022-10-16T15:53:34;20.60;99.90
29237;DHT22;16266;50.866;4.398;2022-10-16T15:56:03;20.50;99.90
29237;DHT22;16266;50.866;4.398;2022-10-16T15:58:29;20.40;99.90
29237;DHT22;16266;50.866;4.398;2022-10-16T16:00:55;20.30;99.90
29237;DHT22;16266;50.866;4.398;2022-10-16T16:03:21;20.20;99.90
29237;DHT22;16266;50.866;4.398;2022-10-16T16:05:47;20.10;99.90
29237;DHT22;16266;50.866;4.398;2022-10-16T16:08:12;20.00;99.90
29237;DHT22;16266;50.866;4.398;2022-10-16T16:10:38;19.90;99.90
29237;DHT22;16266;50.866;4.398;2022-10-16T16:13:03;19.90;99.90
29237;DHT22;16266;50.866;4.398;2022-10-16T16:15:29;19.80;99.90
29237;DHT22;16266;50.866;4.398;2022-10-16T16:17:54;19.70;99.90
29237;DHT22;16266;50.866;4.398;2022-10-16T16:20:20;19.60;99.90
29237;DHT22;16266;50.866;4.398;2022-10-16T16:22:46;19.60;99.90
29237;DHT22;16266;50.866;4.398;2022-10-16T16:25:11;19.50;99.90
29237;DHT22;16266;50.866;4.398;2022-10-16T16:27:37;19.40;99.90
29237;DHT22;16266;50.866;4.398;2022-10-16T16:30:04;19.40;99.90
29237;DHT22;16266;50.866;4.398;2022-10-16T16:32:30;19.30;99.90
29237;DHT22;16266;50.866;4.398;2022-10-16T16:34:56;19.30;99.90
29237;DHT22;16266;50.866;4.398;2022-10-16T16:37:21;19.30;99.90
29237;DHT22;16266;50.866;4.398;2022-10-16T16:39:47;19.20;99.90
29237;DHT22;16266;50.866;4.398;2022-10-16T16:42:12;19.10;99.90
29237;DHT22;16266;50.866;4.398;2022-10-16T16:44:38;19.00;99.90
29237;DHT22;16266;50.866;4.398;2022-10-16T16:47:04;19.00;99.90
29237;DHT22;16266;50.866;4.398;2022-10-16T16:49:29;19.00;99.90
29237;DHT22;16266;50.866;4.398;2022-10-16T16:51:55;19.00;99.90
29237;DHT22;16266;50.866;4.398;2022-10-16T16:54:21;18.90;99.90
29237;DHT22;16266;50.866;4.398;2022-10-16T16:56:46;18.80;99.90
29237;DHT22;16266;50.866;4.398;2022-10-16T16:59:16;18.80;99.90
29237;DHT22;16266;50.866;4.398;2022-10-16T17:01:43;18.80;99.90
29237;DHT22;16266;50.866;4.398;2022-10-16T17:04:08;18.90;99.90
29237;DHT22;16266;50.866;4.398;2022-10-16T17:06:35;18.90;99.90
29237;DHT22;16266;50.866;4.398;2022-10-16T17:09:02;18.90;99.90
29237;DHT22;16266;50.866;4.398;2022-10-16T17:11:28;18.50;99.90
29237;DHT22;16266;50.866;4.398;2022-10-16T17:13:54;18.00;99.90
29237;DHT22;16266;50.866;4.398;2022-10-16T17:16:21;17.60;99.90
29237;DHT22;16266;50.866;4.398;2022-10-16T17:18:46;17.50;99.90
29237;DHT22;16266;50.866;4.398;2022-10-16T17:21:13;17.40;99.90
29237;DHT22;16266;50.866;4.398;2022-10-16T17:23:39;17.40;99.90
29237;DHT22;16266;50.866;4.398;2022-10-16T17:26:12;17.20;99.90